createdAt,value
2022-10-28T00:00:52.523Z,14.35
2022-10-28T00:03:40.310Z,12.93
2022-10-28T00:06:30.385Z,14.02
2022-10-28T00:09:15.512Z,12.88
2022-10-28T00:12:04.298Z,12.85
2022-10-28T00:14:49.593Z,12.73
2022-10-28T00:17:35.088Z,12.85
2022-10-28T00:20:20.434Z,14.90
2022-10-28T00:23:05.450Z,13.93
2022-10-28T00:25:51.260Z,13.57
2022-10-28T00:28:41.441Z,14.27
2022-10-28T00:31:31.284Z,14.68
2022-10-28T00:34:23.588Z,15.02
2022-10-28T00:37:09.076Z,14.25
2022-10-28T00:39:54.657Z,14.00
2022-10-28T00:42:40.103Z,14.55
2022-10-28T00:45:26.601Z,14.63
2022-10-28T00:48:12.284Z,14.35
2022-10-28T00:50:58.020Z,14.65
2022-10-28T00:53:48.117Z,15.93
2022-10-28T00:56:39.103Z,15.73
2022-10-28T00:59:33.880Z,15.20
2022-10-28T01:02:20.344Z,15.85
2022-10-28T01:05:06.237Z,15.13
2022-10-28T01:07:54.821Z,14.75
2022-10-28T01:10:45.931Z,14.75
2022-10-28T01:13:31.691Z,16.02
2022-10-28T01:16:37.460Z,14.95
2022-10-28T01:22:38.782Z,15.77
2022-10-28T01:25:47.021Z,15.52
2022-10-28T01:29:10.084Z,14.48
2022-10-28T01:32:02.646Z,15.45
2022-10-28T01:35:14.001Z,15.38
2022-10-28T01:38:17.690Z,15.23
2022-10-28T01:41:18.293Z,14.50
2022-10-28T01:44:06.385Z,15.93
2022-10-28T01:47:29.652Z,15.38
2022-10-28T01:50:25.693Z,14.90
2022-10-28T01:53:14.578Z,15.25
2022-10-28T01:56:06.764Z,15.63
2022-10-28T01:58:55.772Z,15.20
2022-10-28T02:01:43.991Z,15.52
2022-10-28T02:04:29.644Z,14.50
2022-10-28T02:07:16.458Z,14.70
2022-10-28T02:10:16.253Z,14.88
2022-10-28T02:13:06.741Z,15.80
2022-10-28T02:16:03.894Z,13.73
2022-10-28T02:19:29.568Z,13.73
2022-10-28T02:22:41.016Z,13.43
2022-10-28T02:25:34.944Z,12.98
2022-10-28T02:28:32.704Z,13.05
2022-10-28T02:31:50.483Z,14.25
2022-10-28T02:34:43.028Z,13.65
2022-10-28T02:37:31.865Z,14.57
2022-10-28T02:40:23.582Z,13.68
2022-10-28T02:43:13.224Z,13.82
2022-10-28T02:46:02.275Z,14.40
2022-10-28T02:48:57.481Z,14.07
2022-10-28T02:51:55.905Z,15.30
2022-10-28T02:55:05.774Z,13.60
2022-10-28T02:57:51.836Z,14.20
2022-10-28T03:00:37.282Z,14.18
2022-10-28T03:03:22.856Z,13.98
2022-10-28T03:06:09.048Z,13.63
2022-10-28T03:08:54.612Z,14.85
2022-10-28T03:11:40.135Z,13.50
2022-10-28T03:14:25.603Z,15.40
2022-10-28T03:17:11.477Z,14.25
2022-10-28T03:19:56.552Z,15.57
2022-10-28T03:22:44.948Z,14.95
2022-10-28T03:25:31.470Z,14.65
2022-10-28T03:28:17.095Z,13.85
2022-10-28T03:31:03.045Z,14.18
2022-10-28T03:33:48.353Z,14.38
2022-10-28T03:36:33.977Z,13.65
2022-10-28T03:39:19.213Z,14.50
2022-10-28T03:42:04.884Z,14.80
2022-10-28T03:44:50.411Z,13.13
2022-10-28T03:47:36.261Z,12.65
2022-10-28T03:50:21.616Z,13.20
2022-10-28T03:53:07.022Z,12.85
2022-10-28T03:55:57.468Z,13.15
2022-10-28T03:58:42.648Z,12.32
2022-10-28T04:01:28.292Z,11.85
2022-10-28T04:04:13.557Z,12.00
2022-10-28T04:06:58.815Z,11.65
2022-10-28T04:09:44.387Z,13.18
2022-10-28T04:12:33.462Z,12.45
2022-10-28T04:15:19.142Z,14.18
2022-10-28T04:18:05.018Z,13.27
2022-10-28T04:20:50.520Z,12.95
2022-10-28T04:23:36.079Z,13.27
2022-10-28T04:26:21.492Z,14.30
2022-10-28T04:29:07.060Z,14.23
2022-10-28T04:31:52.634Z,14.10
2022-10-28T04:34:38.184Z,13.32
2022-10-28T04:37:23.772Z,14.15
2022-10-28T04:40:09.789Z,14.40
2022-10-28T04:42:55.238Z,13.88
2022-10-28T04:45:40.851Z,13.07
2022-10-28T04:48:26.534Z,13.00
2022-10-28T04:51:11.770Z,13.60
2022-10-28T04:53:57.422Z,13.15
2022-10-28T04:56:42.725Z,13.05
2022-10-28T04:59:28.200Z,12.38
2022-10-28T05:02:13.623Z,11.68
2022-10-28T05:05:03.360Z,11.27
2022-10-28T05:07:48.968Z,13.02
2022-10-28T05:10:34.434Z,12.05
2022-10-28T05:13:20.462Z,11.55
2022-10-28T05:16:06.310Z,10.98
2022-10-28T05:18:51.964Z,10.95
2022-10-28T05:21:37.584Z,11.43
2022-10-28T05:24:22.907Z,10.90
2022-10-28T05:27:08.447Z,11.95
2022-10-28T05:29:53.811Z,10.73
2022-10-28T05:32:39.152Z,10.60
2022-10-28T05:35:24.877Z,10.40
2022-10-28T05:38:10.336Z,10.10
2022-10-28T05:40:55.983Z,10.68
2022-10-28T05:43:41.417Z,10.43
2022-10-28T05:46:27.021Z,10.55
2022-10-28T05:49:12.615Z,11.27
2022-10-28T05:51:58.239Z,10.10
2022-10-28T05:54:43.527Z,10.30
2022-10-28T05:57:29.042Z,10.40
2022-10-28T06:00:15.948Z,9.10
2022-10-28T06:03:13.550Z,9.90
2022-10-28T06:05:59.436Z,9.73
2022-10-28T06:08:46.271Z,9.63
2022-10-28T06:11:29.808Z,9.68
2022-10-28T06:14:15.230Z,10.20
2022-10-28T06:17:03.202Z,9.80
2022-10-28T06:19:48.724Z,10.30
2022-10-28T06:22:34.317Z,9.80
2022-10-28T06:25:24.600Z,9.95
2022-10-28T06:28:10.919Z,9.52
2022-10-28T06:31:05.107Z,9.95
2022-10-28T06:33:50.542Z,9.68
2022-10-28T06:36:36.534Z,8.90
2022-10-28T06:42:10.212Z,9.70
2022-10-28T06:44:55.813Z,9.88
2022-10-28T06:47:48.038Z,10.60
2022-10-28T06:50:35.073Z,8.63
2022-10-28T06:53:20.347Z,9.05
2022-10-28T06:56:06.288Z,8.98
2022-10-28T06:58:53.431Z,9.80
2022-10-28T07:01:39.076Z,9.10
2022-10-28T07:04:24.537Z,8.98
2022-10-28T07:07:09.942Z,9.65
2022-10-28T07:09:55.494Z,9.02
2022-10-28T07:12:41.006Z,8.75
2022-10-28T07:15:26.405Z,9.10
2022-10-28T07:18:11.808Z,8.95
2022-10-28T07:21:01.557Z,8.80
2022-10-28T07:23:47.325Z,8.10
2022-10-28T07:26:32.394Z,7.97
2022-10-28T07:29:18.042Z,8.25
2022-10-28T07:32:03.900Z,8.15
2022-10-28T07:34:51.674Z,8.35
2022-10-28T07:37:40.009Z,7.90
2022-10-28T07:40:26.590Z,8.15
2022-10-28T07:43:12.217Z,8.00
2022-10-28T07:45:58.018Z,7.40
2022-10-28T07:48:43.777Z,8.57
2022-10-28T07:51:34.745Z,8.00
2022-10-28T07:54:20.202Z,7.32
2022-10-28T07:57:06.064Z,7.95
2022-10-28T07:59:51.442Z,7.82
2022-10-28T08:02:36.629Z,8.98
2022-10-28T08:05:22.241Z,8.18
2022-10-28T08:08:07.631Z,7.90
2022-10-28T08:10:53.444Z,8.38
2022-10-28T08:13:40.187Z,8.05
2022-10-28T08:16:25.682Z,7.80
2022-10-28T08:19:11.329Z,7.32
2022-10-28T08:21:56.990Z,7.75
2022-10-28T08:24:42.406Z,8.18
2022-10-28T08:27:27.895Z,7.80
2022-10-28T08:30:13.446Z,7.45
2022-10-28T08:32:59.157Z,7.72
2022-10-28T08:35:52.298Z,7.32
2022-10-28T08:38:40.513Z,7.75
2022-10-28T08:41:39.515Z,8.57
2022-10-28T08:44:45.968Z,7.80
2022-10-28T08:48:09.829Z,7.70
2022-10-28T08:51:06.141Z,7.88
2022-10-28T08:53:59.409Z,7.05
2022-10-28T08:56:49.810Z,8.00
2022-10-28T08:59:44.069Z,8.57
2022-10-28T09:02:38.257Z,7.82
2022-10-28T09:05:26.378Z,7.78
2022-10-28T09:08:26.265Z,6.90
2022-10-28T09:11:45.596Z,8.10
2022-10-28T09:14:38.673Z,8.88
2022-10-28T09:17:55.280Z,7.50
2022-10-28T09:20:59.951Z,7.72
2022-10-28T09:23:56.746Z,7.07
2022-10-28T09:26:48.383Z,8.07
2022-10-28T09:29:45.134Z,7.35
2022-10-28T09:32:45.332Z,6.93
2022-10-28T09:35:36.453Z,7.55
2022-10-28T09:38:38.031Z,8.13
2022-10-28T09:41:33.915Z,7.07
2022-10-28T09:44:22.405Z,7.43
2022-10-28T09:47:39.224Z,7.53
2022-10-28T09:50:29.613Z,7.80
2022-10-28T09:53:44.547Z,7.53
2022-10-28T09:56:30.776Z,8.85
2022-10-28T09:59:16.480Z,6.95
2022-10-28T10:02:05.659Z,7.03
2022-10-28T10:04:51.020Z,7.13
2022-10-28T10:07:40.598Z,6.60
2022-10-28T10:10:44.877Z,7.32
2022-10-28T10:13:38.905Z,7.63
2022-10-28T10:16:41.064Z,6.72
2022-10-28T10:19:26.657Z,7.50
2022-10-28T10:22:44.918Z,6.50
2022-10-28T10:25:31.137Z,6.75
2022-10-28T10:28:16.561Z,6.32
2022-10-28T10:31:07.467Z,6.53
2022-10-28T10:33:57.146Z,6.88
2022-10-28T10:36:50.843Z,6.65
2022-10-28T10:39:38.189Z,6.97
2022-10-28T10:42:25.631Z,8.25
2022-10-28T10:45:24.202Z,6.40
2022-10-28T10:48:15.191Z,8.00
2022-10-28T10:51:07.018Z,7.93
2022-10-28T10:53:56.938Z,7.32
2022-10-28T10:56:45.524Z,7.68
2022-10-28T10:59:31.714Z,7.00
2022-10-28T11:02:30.715Z,6.00
2022-10-28T11:05:24.456Z,6.43
2022-10-28T11:08:35.024Z,5.72
2022-10-28T11:11:22.284Z,5.93
2022-10-28T11:14:10.880Z,6.90
2022-10-28T11:16:58.448Z,5.72
2022-10-28T11:19:43.716Z,6.68
2022-10-28T11:22:36.934Z,6.57
2022-10-28T11:25:44.164Z,6.25
2022-10-28T11:29:07.637Z,5.38
2022-10-28T11:31:52.915Z,6.80
2022-10-28T11:34:58.483Z,6.00
2022-10-28T11:38:11.171Z,6.25
2022-10-28T11:41:22.753Z,6.10
2022-10-28T11:44:33.128Z,5.78
2022-10-28T11:47:52.584Z,5.47
2022-10-28T11:51:03.466Z,5.13
2022-10-28T11:53:56.804Z,5.47
2022-10-28T11:56:44.588Z,5.43
2022-10-28T12:00:05.785Z,5.50
2022-10-28T12:03:09.226Z,4.97
2022-10-28T12:06:06.397Z,5.32
2022-10-28T12:09:25.817Z,5.55
2022-10-28T12:12:26.359Z,5.03
2022-10-28T12:15:55.119Z,5.25
2022-10-28T12:18:59.674Z,4.70
2022-10-28T12:22:09.118Z,5.68
2022-10-28T12:24:56.633Z,5.35
2022-10-28T12:27:47.008Z,4.95
2022-10-28T12:30:40.366Z,5.03
2022-10-28T12:33:46.227Z,6.25
2022-10-28T12:36:37.235Z,5.32
2022-10-28T12:39:35.316Z,4.53
2022-10-28T12:42:42.009Z,5.13
2022-10-28T12:45:31.237Z,5.25
2022-10-28T12:48:22.536Z,5.15
2022-10-28T12:51:31.934Z,6.88
2022-10-28T12:54:28.851Z,5.88
2022-10-28T12:57:17.034Z,5.07
2022-10-28T13:00:34.831Z,4.90
2022-10-28T13:03:20.274Z,6.30
2022-10-28T13:06:30.657Z,5.68
2022-10-28T13:09:38.049Z,7.03
2022-10-28T13:12:33.802Z,5.03
2022-10-28T13:15:44.111Z,5.70
2022-10-28T13:18:58.224Z,5.57
2022-10-28T13:22:20.824Z,5.32
2022-10-28T13:25:09.995Z,4.85
2022-10-28T13:28:00.377Z,5.13
2022-10-28T13:31:00.306Z,4.78
2022-10-28T13:34:03.034Z,5.43
2022-10-28T13:37:00.187Z,4.60
2022-10-28T13:39:46.917Z,4.80
2022-10-28T13:42:47.264Z,5.18
2022-10-28T13:45:49.179Z,4.70
2022-10-28T13:48:47.185Z,4.70
2022-10-28T13:51:36.962Z,4.88
2022-10-28T13:54:28.243Z,4.22
2022-10-28T13:57:35.241Z,4.22
2022-10-28T14:00:22.193Z,5.43
2022-10-28T14:03:19.286Z,4.07
2022-10-28T14:06:05.241Z,5.30
2022-10-28T14:08:50.703Z,4.53
2022-10-28T14:11:39.364Z,4.68
2022-10-28T14:14:24.984Z,4.60
2022-10-28T14:17:21.230Z,4.60
2022-10-28T14:20:37.663Z,3.67
2022-10-28T14:24:00.579Z,5.22
2022-10-28T14:27:08.062Z,4.28
2022-10-28T14:29:56.258Z,4.28
2022-10-28T14:32:51.558Z,4.68
2022-10-28T14:38:40.092Z,4.60
2022-10-28T14:41:46.787Z,4.30
2022-10-28T14:44:47.722Z,5.20
2022-10-28T14:47:55.865Z,4.38
2022-10-28T14:50:46.942Z,4.40
2022-10-28T14:53:35.032Z,5.25
2022-10-28T14:56:30.848Z,4.35
2022-10-28T14:59:31.062Z,4.18
2022-10-28T15:02:31.664Z,4.38
2022-10-28T15:05:26.769Z,4.88
2022-10-28T15:08:12.055Z,5.05
2022-10-28T15:10:57.677Z,4.47
2022-10-28T15:13:43.383Z,4.70
2022-10-28T15:16:29.750Z,4.50
2022-10-28T15:19:20.581Z,4.63
2022-10-28T15:22:28.249Z,4.57
2022-10-28T15:25:16.672Z,4.85
2022-10-28T15:28:05.181Z,3.70
2022-10-28T15:30:51.043Z,4.97
2022-10-28T15:33:43.887Z,5.45
2022-10-28T15:36:29.320Z,5.55
2022-10-28T15:39:16.901Z,4.25
2022-10-28T15:42:36.584Z,4.47
2022-10-28T15:45:30.162Z,5.68
2022-10-28T15:48:24.034Z,5.15
2022-10-28T15:51:18.833Z,4.43
2022-10-28T15:54:23.786Z,4.88
2022-10-28T15:57:27.060Z,4.82
2022-10-28T16:00:55.696Z,5.78
2022-10-28T16:03:47.078Z,5.50
2022-10-28T16:06:38.297Z,4.63
2022-10-28T16:09:36.602Z,5.65
2022-10-28T16:12:26.634Z,5.47
2022-10-28T16:15:16.260Z,5.18
2022-10-28T16:18:01.527Z,5.63
2022-10-28T16:20:47.065Z,5.75
2022-10-28T16:23:38.732Z,5.95
2022-10-28T16:26:24.936Z,5.43
2022-10-28T16:29:10.125Z,5.20
2022-10-28T16:31:58.374Z,5.63
2022-10-28T16:34:44.122Z,5.80
2022-10-28T16:37:32.579Z,6.13
2022-10-28T16:40:49.678Z,5.10
2022-10-28T16:43:24.836Z,6.30
2022-10-28T16:46:13.042Z,6.18
2022-10-28T16:48:58.249Z,7.53
2022-10-28T16:51:45.118Z,7.65
2022-10-28T16:54:30.818Z,6.30
2022-10-28T16:57:17.587Z,6.93
2022-10-28T17:00:03.150Z,5.72
2022-10-28T17:02:50.791Z,6.05
2022-10-28T17:05:36.153Z,6.35
2022-10-28T17:08:49.044Z,5.80
2022-10-28T17:14:16.405Z,5.80
2022-10-28T17:17:02.023Z,5.60
2022-10-28T17:19:47.692Z,6.90
2022-10-28T17:22:33.250Z,5.63
2022-10-28T17:25:18.971Z,5.45
2022-10-28T17:28:04.443Z,5.75
2022-10-28T17:30:49.703Z,5.90
2022-10-28T17:33:35.476Z,5.70
2022-10-28T17:36:20.619Z,5.32
2022-10-28T17:39:06.555Z,5.47
2022-10-28T17:41:51.758Z,5.28
2022-10-28T17:44:37.376Z,5.55
2022-10-28T17:47:23.049Z,5.18
2022-10-28T17:50:08.807Z,5.00
2022-10-28T17:52:54.312Z,4.75
2022-10-28T17:55:41.728Z,5.68
2022-10-28T17:58:27.459Z,4.53
2022-10-28T18:01:13.117Z,5.75
2022-10-28T18:03:58.755Z,5.28
2022-10-28T18:06:44.211Z,4.35
2022-10-28T18:09:31.714Z,4.75
2022-10-28T18:12:17.020Z,5.45
2022-10-28T18:15:02.394Z,4.68
2022-10-28T18:17:51.055Z,4.55
2022-10-28T18:20:36.968Z,4.72
2022-10-28T18:23:23.392Z,5.35
2022-10-28T18:26:14.001Z,5.47
2022-10-28T18:29:00.167Z,4.43
2022-10-28T18:31:46.594Z,3.83
2022-10-28T18:34:32.474Z,4.00
2022-10-28T18:37:20.525Z,3.92
2022-10-28T18:40:06.767Z,4.38
2022-10-28T18:42:52.331Z,4.40
2022-10-28T18:45:37.689Z,4.63
2022-10-28T18:48:23.156Z,4.43
2022-10-28T18:51:17.389Z,4.25
2022-10-28T18:54:03.442Z,4.50
2022-10-28T18:56:49.257Z,5.32
2022-10-28T18:59:43.174Z,4.15
2022-10-28T19:02:32.985Z,4.63
2022-10-28T19:05:19.022Z,5.40
2022-10-28T19:08:04.484Z,4.00
2022-10-28T19:10:55.898Z,4.15
2022-10-28T19:13:44.232Z,4.70
2022-10-28T19:16:32.030Z,4.03
2022-10-28T19:19:17.236Z,5.45
2022-10-28T19:22:02.829Z,4.25
2022-10-28T19:24:48.429Z,4.25
2022-10-28T19:27:33.852Z,4.80
2022-10-28T19:30:19.321Z,5.47
2022-10-28T19:33:04.614Z,5.18
2022-10-28T19:35:50.302Z,6.03
2022-10-28T19:38:37.426Z,5.53
2022-10-28T19:41:25.620Z,4.38
2022-10-28T19:44:19.502Z,4.43
2022-10-28T19:47:04.803Z,5.00
2022-10-28T19:49:52.926Z,5.47
2022-10-28T19:52:38.885Z,4.60
2022-10-28T19:55:24.392Z,4.80
2022-10-28T19:58:09.824Z,5.10
2022-10-28T20:01:04.119Z,5.00
2022-10-28T20:03:53.823Z,5.00
2022-10-28T20:06:40.762Z,5.43
2022-10-28T20:09:28.958Z,5.43
2022-10-28T20:12:15.118Z,6.07
2022-10-28T20:15:00.357Z,5.38
2022-10-28T20:17:45.816Z,5.30
2022-10-28T20:20:31.322Z,5.28
2022-10-28T20:23:16.894Z,5.20
2022-10-28T20:26:08.098Z,6.15
2022-10-28T20:28:53.971Z,5.78
2022-10-28T20:31:39.178Z,4.80
2022-10-28T20:34:27.646Z,5.28
2022-10-28T20:37:19.228Z,5.32
2022-10-28T20:40:07.509Z,5.90
2022-10-28T20:42:53.564Z,5.22
2022-10-28T20:45:42.312Z,5.35
2022-10-28T20:48:29.650Z,6.55
2022-10-28T20:51:15.659Z,5.82
2022-10-28T20:54:01.904Z,5.80
2022-10-28T20:56:47.589Z,5.60
2022-10-28T20:59:35.804Z,5.72
2022-10-28T21:02:21.152Z,7.35
2022-10-28T21:05:07.086Z,6.25
2022-10-28T21:07:52.866Z,6.93
2022-10-28T21:10:39.402Z,6.35
2022-10-28T21:13:27.938Z,6.88
2022-10-28T21:16:13.558Z,6.40
2022-10-28T21:18:59.840Z,6.55
2022-10-28T21:21:54.542Z,6.00
2022-10-28T21:24:39.927Z,7.40
2022-10-28T21:27:25.346Z,6.75
2022-10-28T21:30:11.843Z,6.10
2022-10-28T21:32:57.918Z,7.20
2022-10-28T21:35:44.022Z,8.07
2022-10-28T21:38:30.198Z,6.97
2022-10-28T21:41:20.635Z,8.88
2022-10-28T21:44:06.254Z,8.98
2022-10-28T21:46:54.073Z,7.72
2022-10-28T21:49:39.587Z,7.70
2022-10-28T21:52:25.159Z,7.80
2022-10-28T21:55:20.318Z,8.43
2022-10-28T21:58:12.565Z,8.45
2022-10-28T22:01:02.631Z,8.30
2022-10-28T22:03:48.367Z,9.50
2022-10-28T22:06:36.676Z,8.80
2022-10-28T22:09:22.228Z,8.30
2022-10-28T22:12:08.129Z,7.82
2022-10-28T22:14:53.907Z,9.38
2022-10-28T22:17:39.852Z,9.00
2022-10-28T22:23:10.640Z,8.05
2022-10-28T22:26:01.677Z,8.25
2022-10-28T22:28:47.884Z,8.68
2022-10-28T22:31:33.573Z,8.23
2022-10-28T22:34:18.974Z,8.45
2022-10-28T22:37:04.355Z,8.32
2022-10-28T22:39:49.841Z,10.15
2022-10-28T22:42:35.383Z,8.70
2022-10-28T22:45:20.903Z,10.25
2022-10-28T22:48:06.456Z,11.93
2022-10-28T22:50:52.752Z,13.25
2022-10-28T22:53:39.391Z,17.55
2022-10-28T22:56:27.187Z,18.35
2022-10-28T22:59:15.584Z,18.98
2022-10-28T23:02:02.825Z,18.33
2022-10-28T23:04:48.004Z,16.60
2022-10-28T23:07:33.683Z,19.48
2022-10-28T23:10:19.660Z,18.98
2022-10-28T23:13:06.161Z,19.75
2022-10-28T23:15:51.900Z,20.98
2022-10-28T23:18:37.735Z,20.95
2022-10-28T23:21:25.339Z,21.65
2022-10-28T23:24:11.114Z,22.83
2022-10-28T23:29:41.905Z,22.98
2022-10-28T23:32:27.490Z,22.83
2022-10-28T23:35:13.113Z,22.23
2022-10-28T23:38:00.213Z,21.40
2022-10-28T23:40:54.390Z,22.23
2022-10-28T23:43:39.835Z,19.83
2022-10-28T23:46:25.502Z,21.10
2022-10-28T23:49:10.954Z,19.27
2022-10-28T23:51:56.616Z,20.00
2022-10-28T23:54:42.096Z,20.50
2022-10-28T23:57:27.746Z,20.05
